createdAt,value
2022-08-26T00:02:15.391Z,3.93
2022-08-26T00:05:25.070Z,2.10
2022-08-26T00:08:30.365Z,3.03
2022-08-26T00:11:35.944Z,2.53
2022-08-26T00:14:42.051Z,2.03
2022-08-26T00:17:57.290Z,1.90
2022-08-26T00:21:06.169Z,1.60
2022-08-26T00:24:13.412Z,1.80
2022-08-26T00:27:19.192Z,2.00
2022-08-26T00:30:26.699Z,1.80
2022-08-26T00:33:31.848Z,1.93
2022-08-26T00:36:37.143Z,1.90
2022-08-26T00:39:42.497Z,2.07
2022-08-26T00:42:48.028Z,1.80
2022-08-26T00:45:54.452Z,2.90
2022-08-26T00:49:00.259Z,1.60
2022-08-26T00:52:06.375Z,1.60
2022-08-26T00:55:20.159Z,1.70
2022-08-26T00:58:25.989Z,2.80
2022-08-26T01:01:32.275Z,1.87
2022-08-26T01:04:48.916Z,1.70
2022-08-26T01:08:00.938Z,1.47
2022-08-26T01:11:09.156Z,1.50
2022-08-26T01:14:14.840Z,1.73
2022-08-26T01:17:20.517Z,1.93
2022-08-26T01:20:26.376Z,1.67
2022-08-26T01:23:31.905Z,2.27
2022-08-26T01:26:40.687Z,1.90
2022-08-26T01:29:46.000Z,3.30
2022-08-26T01:32:52.150Z,2.13
2022-08-26T01:35:57.835Z,1.60
2022-08-26T01:39:05.884Z,1.73
2022-08-26T01:42:13.302Z,2.07
2022-08-26T01:45:19.688Z,2.50
2022-08-26T01:48:25.360Z,1.70
2022-08-26T01:51:31.601Z,2.60
2022-08-26T01:54:37.064Z,1.60
2022-08-26T01:57:44.288Z,1.90
2022-08-26T02:00:50.810Z,1.60
2022-08-26T02:07:23.743Z,2.80
2022-08-26T02:10:32.155Z,1.90
2022-08-26T02:13:38.379Z,2.53
2022-08-26T02:16:44.097Z,2.27
2022-08-26T02:19:50.113Z,2.50
2022-08-26T02:22:55.745Z,2.27
2022-08-26T02:26:01.355Z,2.40
2022-08-26T02:29:07.567Z,1.90
2022-08-26T02:32:18.637Z,1.70
2022-08-26T02:35:25.793Z,3.37
2022-08-26T02:38:31.681Z,1.70
2022-08-26T02:41:44.797Z,2.27
2022-08-26T02:44:51.077Z,2.70
2022-08-26T02:47:58.179Z,1.60
2022-08-26T02:51:05.465Z,2.23
2022-08-26T02:54:10.679Z,3.77
2022-08-26T02:57:16.275Z,3.40
2022-08-26T03:00:21.991Z,2.60
2022-08-26T03:03:29.095Z,4.40
2022-08-26T03:06:35.862Z,2.50
2022-08-26T03:09:42.483Z,2.03
2022-08-26T03:12:48.156Z,4.63
2022-08-26T03:15:55.285Z,1.90
2022-08-26T03:19:02.541Z,2.63
2022-08-26T03:22:08.716Z,2.33
2022-08-26T03:25:14.184Z,4.57
2022-08-26T03:28:20.196Z,3.03
2022-08-26T03:31:25.112Z,1.93
2022-08-26T03:37:55.085Z,2.27
2022-08-26T03:41:01.163Z,2.70
2022-08-26T03:44:07.061Z,2.33
2022-08-26T03:47:13.587Z,2.27
2022-08-26T03:50:23.022Z,4.03
2022-08-26T03:53:29.848Z,2.20
2022-08-26T03:56:35.434Z,2.00
2022-08-26T03:59:41.348Z,2.67
2022-08-26T04:02:53.194Z,2.73
2022-08-26T04:05:58.666Z,2.57
2022-08-26T04:09:04.314Z,3.10
2022-08-26T04:12:12.925Z,2.70
2022-08-26T04:15:18.471Z,2.60
2022-08-26T04:18:24.232Z,4.00
2022-08-26T04:21:29.662Z,2.13
2022-08-26T04:24:36.359Z,2.40
2022-08-26T04:27:42.265Z,2.20
2022-08-26T04:30:48.286Z,2.87
2022-08-26T04:33:56.818Z,3.23
2022-08-26T04:37:03.210Z,2.70
2022-08-26T04:40:10.259Z,3.40
2022-08-26T04:43:16.548Z,2.10
2022-08-26T04:46:34.044Z,2.00
2022-08-26T04:49:40.027Z,2.00
2022-08-26T04:52:46.951Z,2.10
2022-08-26T04:55:52.514Z,3.73
2022-08-26T04:59:00.898Z,1.97
2022-08-26T05:02:31.943Z,2.83
2022-08-26T05:05:35.548Z,2.30
2022-08-26T05:08:42.255Z,3.50
2022-08-26T05:11:52.306Z,3.23
2022-08-26T05:14:57.760Z,2.97
2022-08-26T05:18:03.858Z,3.10
2022-08-26T05:21:26.609Z,3.37
2022-08-26T05:24:32.843Z,6.33
2022-08-26T05:27:39.130Z,3.33
2022-08-26T05:30:44.908Z,5.20
2022-08-26T05:33:51.142Z,4.67
2022-08-26T05:36:57.798Z,2.83
2022-08-26T05:40:04.540Z,3.47
2022-08-26T05:43:12.327Z,3.87
2022-08-26T05:46:18.215Z,3.10
2022-08-26T05:49:32.689Z,3.20
2022-08-26T05:52:38.744Z,3.03
2022-08-26T05:55:46.518Z,2.90
2022-08-26T05:58:52.495Z,5.47
2022-08-26T06:01:58.603Z,3.53
2022-08-26T06:05:20.233Z,2.70
2022-08-26T06:08:27.968Z,4.47
2022-08-26T06:11:33.491Z,2.30
2022-08-26T06:14:39.458Z,3.23
2022-08-26T06:17:44.899Z,3.93
2022-08-26T06:20:57.904Z,1.83
2022-08-26T06:24:21.594Z,4.03
2022-08-26T06:27:33.316Z,2.50
2022-08-26T06:30:39.251Z,3.47
2022-08-26T06:33:46.083Z,2.33
2022-08-26T06:36:53.721Z,4.27
2022-08-26T06:39:59.552Z,2.13
2022-08-26T06:43:08.712Z,6.40
2022-08-26T06:46:15.089Z,4.83
2022-08-26T06:49:25.866Z,2.07
2022-08-26T06:52:33.491Z,2.27
2022-08-26T06:55:40.219Z,1.83
2022-08-26T06:58:46.024Z,1.93
2022-08-26T07:01:53.437Z,2.17
2022-08-26T07:04:58.982Z,2.37
2022-08-26T07:08:05.716Z,2.00
2022-08-26T07:11:20.173Z,3.83
2022-08-26T07:14:26.448Z,3.20
2022-08-26T07:17:31.972Z,1.40
2022-08-26T07:20:42.386Z,1.83
2022-08-26T07:23:49.173Z,1.70
2022-08-26T07:26:55.188Z,1.40
2022-08-26T07:30:01.159Z,2.27
2022-08-26T07:33:08.450Z,1.57
2022-08-26T07:36:17.022Z,1.93
2022-08-26T07:39:23.381Z,2.13
2022-08-26T07:42:28.859Z,2.10
2022-08-26T07:45:34.634Z,1.40
2022-08-26T07:48:41.725Z,2.40
2022-08-26T07:51:52.165Z,3.07
2022-08-26T07:54:59.271Z,1.73
2022-08-26T07:58:05.660Z,1.47
2022-08-26T08:01:14.682Z,2.53
2022-08-26T08:04:26.157Z,1.63
2022-08-26T08:07:44.723Z,1.20
2022-08-26T08:10:50.533Z,2.13
2022-08-26T08:14:00.972Z,1.20
2022-08-26T08:17:07.408Z,1.70
2022-08-26T08:20:12.969Z,1.47
2022-08-26T08:23:18.348Z,1.47
2022-08-26T08:26:24.320Z,2.10
2022-08-26T08:29:42.436Z,1.47
2022-08-26T08:32:48.289Z,1.33
2022-08-26T08:35:55.768Z,1.50
2022-08-26T08:39:01.655Z,1.60
2022-08-26T08:42:07.982Z,1.40
2022-08-26T08:45:15.419Z,1.50
2022-08-26T08:48:22.520Z,1.10
2022-08-26T08:51:34.083Z,1.47
2022-08-26T08:54:47.241Z,2.23
2022-08-26T08:57:53.688Z,1.30
2022-08-26T09:00:59.683Z,1.77
2022-08-26T09:04:05.185Z,2.87
2022-08-26T09:07:32.168Z,1.73
2022-08-26T09:10:39.100Z,1.20
2022-08-26T09:13:44.941Z,3.07
2022-08-26T09:16:51.778Z,1.10
2022-08-26T09:19:58.883Z,1.30
2022-08-26T09:23:04.975Z,1.13
2022-08-26T09:26:10.715Z,1.93
2022-08-26T09:29:16.446Z,1.87
2022-08-26T09:32:24.335Z,1.77
2022-08-26T09:35:31.721Z,2.50
2022-08-26T09:38:37.725Z,1.60
2022-08-26T09:41:43.664Z,1.77
2022-08-26T09:44:49.729Z,1.40
2022-08-26T09:47:55.201Z,3.37
2022-08-26T09:51:00.860Z,2.00
2022-08-26T09:54:08.147Z,1.60
2022-08-26T09:57:13.695Z,1.60
2022-08-26T10:00:19.755Z,2.37
2022-08-26T10:03:25.825Z,2.13
2022-08-26T10:06:31.524Z,3.37
2022-08-26T10:09:36.881Z,5.10
2022-08-26T10:12:42.494Z,5.53
2022-08-26T10:15:50.821Z,2.00
2022-08-26T10:18:59.984Z,6.70
2022-08-26T10:22:06.139Z,3.23
2022-08-26T10:25:26.773Z,5.97
2022-08-26T10:28:32.056Z,4.47
2022-08-26T10:31:48.297Z,2.67
2022-08-26T10:34:57.993Z,4.10
2022-08-26T10:38:04.922Z,3.47
2022-08-26T10:41:13.123Z,1.90
2022-08-26T10:44:21.524Z,4.17
2022-08-26T10:47:47.714Z,3.60
2022-08-26T10:50:55.826Z,4.00
2022-08-26T10:54:02.339Z,5.60
2022-08-26T10:57:09.605Z,3.00
2022-08-26T11:00:29.005Z,4.60
2022-08-26T11:03:49.606Z,5.03
2022-08-26T11:06:55.754Z,6.27
2022-08-26T11:10:01.862Z,4.43
2022-08-26T11:13:07.944Z,5.60
2022-08-26T11:16:13.934Z,4.50
2022-08-26T11:19:19.482Z,4.07
2022-08-26T11:22:31.180Z,3.47
2022-08-26T11:25:37.029Z,5.57
2022-08-26T11:28:44.229Z,3.43
2022-08-26T11:31:50.482Z,3.87
2022-08-26T11:34:56.758Z,5.83
2022-08-26T11:38:04.224Z,3.70
2022-08-26T11:41:09.998Z,4.07
2022-08-26T11:44:15.628Z,4.17
2022-08-26T11:47:21.402Z,4.93
2022-08-26T11:50:47.182Z,4.43
2022-08-26T11:53:53.633Z,3.77
2022-08-26T11:56:59.464Z,7.47
2022-08-26T12:00:12.027Z,5.67
2022-08-26T12:03:19.645Z,5.77
2022-08-26T12:06:46.382Z,6.83
2022-08-26T12:09:55.087Z,2.97
2022-08-26T12:13:02.081Z,4.53
2022-08-26T12:16:07.814Z,7.00
2022-08-26T12:19:13.365Z,6.50
2022-08-26T12:22:19.137Z,5.07
2022-08-26T12:25:28.083Z,5.20
2022-08-26T12:28:41.918Z,3.77
2022-08-26T12:31:48.162Z,8.90
2022-08-26T12:34:53.750Z,5.70
2022-08-26T12:37:59.326Z,5.63
2022-08-26T12:41:06.343Z,4.40
2022-08-26T12:44:12.094Z,2.90
2022-08-26T12:47:23.340Z,4.43
2022-08-26T12:50:40.717Z,6.43
2022-08-26T12:53:47.515Z,3.23
2022-08-26T12:56:54.306Z,4.37
2022-08-26T12:59:59.972Z,7.77
2022-08-26T13:03:05.753Z,7.60
2022-08-26T13:06:16.134Z,8.43
2022-08-26T13:09:21.929Z,10.73
2022-08-26T13:12:27.818Z,7.07
2022-08-26T13:15:33.214Z,4.83
2022-08-26T13:18:40.216Z,7.07
2022-08-26T13:21:47.870Z,6.13
2022-08-26T13:24:54.310Z,8.80
2022-08-26T13:28:06.207Z,6.87
2022-08-26T13:31:12.023Z,4.43
2022-08-26T13:34:18.507Z,4.63
2022-08-26T13:37:34.712Z,6.20
2022-08-26T13:40:41.347Z,6.97
2022-08-26T13:43:47.366Z,6.23
2022-08-26T13:46:53.765Z,5.10
2022-08-26T13:50:00.612Z,3.87
2022-08-26T13:53:06.444Z,5.03
2022-08-26T13:56:13.011Z,5.70
2022-08-26T13:59:19.131Z,3.97
2022-08-26T14:02:25.361Z,4.43
2022-08-26T14:05:31.501Z,4.27
2022-08-26T14:08:37.369Z,3.90
2022-08-26T14:11:50.800Z,4.30
2022-08-26T14:15:00.579Z,3.80
2022-08-26T14:18:06.582Z,7.43
2022-08-26T14:21:14.728Z,4.20
2022-08-26T14:24:20.360Z,7.00
2022-08-26T14:27:29.877Z,4.63
2022-08-26T14:30:35.539Z,4.90
2022-08-26T14:33:41.669Z,2.63
2022-08-26T14:36:54.861Z,4.47
2022-08-26T14:40:01.091Z,7.17
2022-08-26T14:43:07.586Z,7.43
2022-08-26T14:46:13.066Z,9.20
2022-08-26T14:49:19.551Z,5.90
2022-08-26T14:52:25.670Z,3.97
2022-08-26T14:55:30.311Z,6.67
2022-08-26T14:58:36.391Z,9.17
2022-08-26T15:01:42.332Z,7.27
2022-08-26T15:04:47.962Z,5.50
2022-08-26T15:07:53.712Z,6.03
2022-08-26T15:11:00.224Z,7.97
2022-08-26T15:14:19.249Z,7.63
2022-08-26T15:17:25.889Z,2.73
2022-08-26T15:23:42.552Z,5.93
2022-08-26T15:26:53.341Z,4.80
2022-08-26T15:29:59.481Z,2.37
2022-08-26T15:33:05.454Z,5.27
2022-08-26T15:36:21.233Z,5.30
2022-08-26T15:39:26.592Z,4.97
2022-08-26T15:42:32.399Z,6.60
2022-08-26T15:45:38.194Z,6.17
2022-08-26T15:48:43.849Z,6.13
2022-08-26T15:51:52.771Z,4.90
2022-08-26T15:54:58.649Z,5.07
2022-08-26T15:58:05.748Z,3.37
2022-08-26T16:01:27.514Z,4.90
2022-08-26T16:04:33.463Z,3.90
2022-08-26T16:07:40.763Z,3.57
2022-08-26T16:10:50.046Z,5.33
2022-08-26T16:13:55.832Z,3.17
2022-08-26T16:17:01.635Z,6.23
2022-08-26T16:20:07.994Z,3.23
2022-08-26T16:23:13.490Z,5.43
2022-08-26T16:26:18.840Z,2.83
2022-08-26T16:29:24.671Z,2.83
2022-08-26T16:32:31.367Z,4.20
2022-08-26T16:35:37.233Z,3.90
2022-08-26T16:38:43.291Z,3.23
2022-08-26T16:41:48.990Z,5.13
2022-08-26T16:44:54.447Z,4.37
2022-08-26T16:48:00.531Z,4.90
2022-08-26T16:51:06.555Z,4.30
2022-08-26T16:54:11.833Z,5.30
2022-08-26T16:57:17.502Z,3.27
2022-08-26T17:00:24.861Z,4.47
2022-08-26T17:03:30.214Z,4.90
2022-08-26T17:06:35.666Z,3.17
2022-08-26T17:09:41.696Z,4.27
2022-08-26T17:12:48.480Z,5.67
2022-08-26T17:15:58.509Z,3.83
2022-08-26T17:19:05.868Z,4.13
2022-08-26T17:22:11.707Z,3.60
2022-08-26T17:25:17.537Z,3.50
2022-08-26T17:28:23.957Z,4.37
2022-08-26T17:31:29.382Z,3.93
2022-08-26T17:34:35.163Z,4.83
2022-08-26T17:37:40.675Z,2.93
2022-08-26T17:40:47.182Z,3.17
2022-08-26T17:43:52.580Z,3.33
2022-08-26T17:46:58.468Z,3.90
2022-08-26T17:50:08.190Z,4.53
2022-08-26T17:53:18.831Z,3.90
2022-08-26T17:56:25.577Z,3.40
2022-08-26T17:59:31.364Z,3.97
2022-08-26T18:02:37.921Z,3.77
2022-08-26T18:05:43.753Z,3.57
2022-08-26T18:08:49.591Z,3.20
2022-08-26T18:11:55.359Z,5.80
2022-08-26T18:15:00.863Z,4.03
2022-08-26T18:18:06.598Z,3.73
2022-08-26T18:21:13.743Z,3.47
2022-08-26T18:24:19.085Z,3.77
2022-08-26T18:27:24.627Z,3.10
2022-08-26T18:30:30.131Z,3.57
2022-08-26T18:33:35.652Z,5.30
2022-08-26T18:36:42.682Z,3.77
2022-08-26T18:39:48.713Z,3.33
2022-08-26T18:42:55.384Z,3.97
2022-08-26T18:46:01.421Z,4.77
2022-08-26T18:49:08.221Z,4.47
2022-08-26T18:52:13.826Z,3.40
2022-08-26T18:55:19.469Z,4.73
2022-08-26T18:58:25.653Z,4.03
2022-08-26T19:01:30.925Z,4.40
2022-08-26T19:04:37.286Z,3.97
2022-08-26T19:07:44.248Z,4.13
2022-08-26T19:10:54.052Z,3.63
2022-08-26T19:13:59.607Z,4.33
2022-08-26T19:17:05.637Z,3.90
2022-08-26T19:20:12.082Z,4.27
2022-08-26T19:23:33.583Z,5.63
2022-08-26T19:26:40.071Z,4.00
2022-08-26T19:29:26.496Z,3.37
2022-08-26T19:32:32.305Z,3.90
2022-08-26T19:35:37.700Z,4.53
2022-08-26T19:38:44.413Z,5.30
2022-08-26T19:41:49.757Z,5.13
2022-08-26T19:45:24.946Z,4.30
2022-08-26T19:48:30.983Z,4.97
2022-08-26T19:51:36.948Z,3.83
2022-08-26T19:54:42.751Z,4.30
2022-08-26T19:57:50.557Z,4.33
2022-08-26T20:00:56.549Z,4.50
2022-08-26T20:04:03.605Z,5.33
2022-08-26T20:07:09.134Z,4.67
2022-08-26T20:10:15.016Z,8.03
2022-08-26T20:13:21.933Z,6.83
2022-08-26T20:16:27.575Z,12.07
2022-08-26T20:19:51.201Z,10.40
2022-08-26T20:22:56.577Z,12.50
2022-08-26T20:26:02.950Z,11.70
2022-08-26T20:29:09.271Z,7.77
2022-08-26T20:32:14.847Z,10.40
2022-08-26T20:35:21.394Z,9.40
2022-08-26T20:38:26.921Z,11.77
2022-08-26T20:41:39.097Z,12.27
2022-08-26T20:44:51.344Z,12.63
2022-08-26T20:48:00.958Z,8.53
2022-08-26T20:51:06.536Z,11.97
2022-08-26T20:54:13.560Z,10.90
2022-08-26T20:57:22.385Z,11.37
2022-08-26T21:00:28.908Z,11.40
2022-08-26T21:03:34.401Z,12.00
2022-08-26T21:06:40.251Z,12.47
2022-08-26T21:09:49.564Z,12.73
2022-08-26T21:12:58.208Z,13.47
2022-08-26T21:16:04.051Z,13.40
2022-08-26T21:19:10.709Z,14.83
2022-08-26T21:22:16.276Z,14.77
2022-08-26T21:25:21.683Z,16.27
2022-08-26T21:28:27.769Z,17.80
2022-08-26T21:31:33.502Z,21.87
2022-08-26T21:34:38.858Z,19.60
2022-08-26T21:37:45.251Z,17.60
2022-08-26T21:40:58.566Z,24.87
2022-08-26T21:44:04.333Z,18.43
2022-08-26T21:47:09.839Z,18.00
2022-08-26T21:50:16.245Z,12.63
2022-08-26T21:53:21.576Z,12.93
2022-08-26T21:56:27.166Z,20.90
2022-08-26T21:59:32.984Z,26.43
2022-08-26T22:02:39.049Z,15.63
2022-08-26T22:05:44.813Z,18.87
2022-08-26T22:08:50.603Z,19.63
2022-08-26T22:11:56.805Z,19.93
2022-08-26T22:15:03.853Z,19.83
2022-08-26T22:18:10.038Z,15.53
2022-08-26T22:21:15.831Z,15.00
2022-08-26T22:24:21.662Z,20.50
2022-08-26T22:27:27.384Z,17.30
2022-08-26T22:30:35.173Z,26.40
2022-08-26T22:33:41.149Z,26.60
2022-08-26T22:36:46.842Z,24.07
2022-08-26T22:39:52.654Z,26.23
2022-08-26T22:43:00.484Z,19.70
2022-08-26T22:46:09.868Z,20.47
2022-08-26T22:49:17.211Z,17.77
2022-08-26T22:52:22.897Z,18.27
2022-08-26T22:55:28.541Z,27.83
2022-08-26T22:58:34.267Z,18.63
2022-08-26T23:01:39.746Z,26.03
2022-08-26T23:04:55.320Z,21.27
2022-08-26T23:08:01.180Z,22.87
2022-08-26T23:11:07.042Z,20.23
2022-08-26T23:14:12.756Z,20.53
2022-08-26T23:17:18.254Z,23.13
2022-08-26T23:20:24.640Z,18.63
2022-08-26T23:23:31.255Z,21.77
2022-08-26T23:26:37.013Z,24.00
2022-08-26T23:29:42.724Z,28.07
2022-08-26T23:32:49.442Z,15.47
2022-08-26T23:35:54.101Z,19.60
2022-08-26T23:38:59.474Z,27.20
2022-08-26T23:42:06.654Z,16.57
2022-08-26T23:45:12.135Z,28.70
2022-08-26T23:48:19.499Z,21.37
2022-08-26T23:51:43.334Z,19.33
2022-08-26T23:54:52.530Z,27.63
2022-08-26T23:57:57.970Z,16.77
